sensor_id;sensor_type;location;lat;lon;timestamp;P1;durP1;ratioP1;P2;durP2;ratioP2
6089;SDS011;3073;42.660;23.316;2023-05-21T00:02:13;13.83;;;9.57;;
6089;SDS011;3073;42.660;23.316;2023-05-21T00:04:42;14.80;;;8.37;;
6089;SDS011;3073;42.660;23.316;2023-05-21T00:07:09;16.30;;;8.90;;
6089;SDS011;3073;42.660;23.316;2023-05-21T00:09:36;23.37;;;8.83;;
6089;SDS011;3073;42.660;23.316;2023-05-21T00:12:18;13.90;;;8.27;;
6089;SDS011;3073;42.660;23.316;2023-05-21T00:14:45;24.70;;;9.50;;
6089;SDS011;3073;42.660;23.316;2023-05-21T00:17:12;12.53;;;8.67;;
6089;SDS011;3073;42.660;23.316;2023-05-21T00:19:38;13.77;;;8.70;;
6089;SDS011;3073;42.660;23.316;2023-05-21T00:22:05;15.73;;;8.57;;
6089;SDS011;3073;42.660;23.316;2023-05-21T00:24:33;12.30;;;8.80;;
6089;SDS011;3073;42.660;23.316;2023-05-21T00:27:00;10.30;;;7.60;;
6089;SDS011;3073;42.660;23.316;2023-05-21T00:29:28;13.07;;;8.70;;
6089;SDS011;3073;42.660;23.316;2023-05-21T00:31:55;14.33;;;7.70;;
6089;SDS011;3073;42.660;23.316;2023-05-21T00:34:22;11.00;;;7.40;;
6089;SDS011;3073;42.660;23.316;2023-05-21T00:36:49;15.27;;;7.93;;
6089;SDS011;3073;42.660;23.316;2023-05-21T00:39:17;14.37;;;9.13;;
6089;SDS011;3073;42.660;23.316;2023-05-21T00:41:44;10.00;;;6.83;;
6089;SDS011;3073;42.660;23.316;2023-05-21T00:44:12;14.70;;;7.93;;
6089;SDS011;3073;42.660;23.316;2023-05-21T00:46:42;15.33;;;8.97;;
6089;SDS011;3073;42.660;23.316;2023-05-21T00:49:12;12.77;;;7.63;;
6089;SDS011;3073;42.660;23.316;2023-05-21T00:51:40;15.20;;;9.20;;
6089;SDS011;3073;42.660;23.316;2023-05-21T00:54:09;11.70;;;8.00;;
6089;SDS011;3073;42.660;23.316;2023-05-21T00:56:36;17.80;;;8.17;;
6089;SDS011;3073;42.660;23.316;2023-05-21T00:59:03;13.70;;;7.77;;
6089;SDS011;3073;42.660;23.316;2023-05-21T01:01:30;12.47;;;8.30;;
6089;SDS011;3073;42.660;23.316;2023-05-21T01:04:02;18.53;;;8.63;;
6089;SDS011;3073;42.660;23.316;2023-05-21T01:06:30;14.10;;;8.67;;
6089;SDS011;3073;42.660;23.316;2023-05-21T01:08:58;16.87;;;8.70;;
6089;SDS011;3073;42.660;23.316;2023-05-21T01:11:28;13.47;;;8.60;;
6089;SDS011;3073;42.660;23.316;2023-05-21T01:14:03;14.27;;;9.20;;
6089;SDS011;3073;42.660;23.316;2023-05-21T01:16:34;14.40;;;8.70;;
6089;SDS011;3073;42.660;23.316;2023-05-21T01:19:04;17.83;;;8.53;;
6089;SDS011;3073;42.660;23.316;2023-05-21T01:21:35;11.73;;;8.23;;
6089;SDS011;3073;42.660;23.316;2023-05-21T01:24:08;14.00;;;9.20;;
6089;SDS011;3073;42.660;23.316;2023-05-21T01:26:35;20.30;;;9.53;;
6089;SDS011;3073;42.660;23.316;2023-05-21T01:29:05;18.83;;;9.97;;
6089;SDS011;3073;42.660;23.316;2023-05-21T01:31:41;15.57;;;8.40;;
6089;SDS011;3073;42.660;23.316;2023-05-21T01:34:20;17.20;;;9.50;;
6089;SDS011;3073;42.660;23.316;2023-05-21T01:36:52;14.97;;;9.27;;
6089;SDS011;3073;42.660;23.316;2023-05-21T01:39:28;14.87;;;10.33;;
6089;SDS011;3073;42.660;23.316;2023-05-21T01:41:59;20.83;;;8.97;;
6089;SDS011;3073;42.660;23.316;2023-05-21T01:44:28;15.70;;;9.70;;
6089;SDS011;3073;42.660;23.316;2023-05-21T01:46:56;13.23;;;9.40;;
6089;SDS011;3073;42.660;23.316;2023-05-21T01:49:25;14.87;;;10.10;;
6089;SDS011;3073;42.660;23.316;2023-05-21T01:51:52;18.47;;;10.53;;
6089;SDS011;3073;42.660;23.316;2023-05-21T01:54:19;15.23;;;9.70;;
6089;SDS011;3073;42.660;23.316;2023-05-21T01:56:49;16.27;;;9.80;;
6089;SDS011;3073;42.660;23.316;2023-05-21T01:59:16;18.00;;;10.87;;
6089;SDS011;3073;42.660;23.316;2023-05-21T02:01:44;15.70;;;10.10;;
6089;SDS011;3073;42.660;23.316;2023-05-21T02:04:11;16.00;;;9.97;;
6089;SDS011;3073;42.660;23.316;2023-05-21T02:06:38;14.80;;;10.50;;
6089;SDS011;3073;42.660;23.316;2023-05-21T02:09:05;15.33;;;11.03;;
6089;SDS011;3073;42.660;23.316;2023-05-21T02:11:33;19.00;;;10.87;;
6089;SDS011;3073;42.660;23.316;2023-05-21T02:14:01;16.73;;;11.13;;
6089;SDS011;3073;42.660;23.316;2023-05-21T02:16:28;17.20;;;11.27;;
6089;SDS011;3073;42.660;23.316;2023-05-21T02:18:55;20.00;;;11.30;;
6089;SDS011;3073;42.660;23.316;2023-05-21T02:21:24;25.30;;;9.70;;
6089;SDS011;3073;42.660;23.316;2023-05-21T02:23:51;15.03;;;9.77;;
6089;SDS011;3073;42.660;23.316;2023-05-21T02:26:18;15.53;;;9.07;;
6089;SDS011;3073;42.660;23.316;2023-05-21T02:28:46;14.33;;;9.97;;
6089;SDS011;3073;42.660;23.316;2023-05-21T02:31:14;16.57;;;10.60;;
6089;SDS011;3073;42.660;23.316;2023-05-21T02:33:41;14.80;;;9.13;;
6089;SDS011;3073;42.660;23.316;2023-05-21T02:36:08;17.43;;;11.17;;
6089;SDS011;3073;42.660;23.316;2023-05-21T02:38:37;16.87;;;9.77;;
6089;SDS011;3073;42.660;23.316;2023-05-21T02:41:07;14.30;;;9.43;;
6089;SDS011;3073;42.660;23.316;2023-05-21T02:43:35;18.20;;;10.07;;
6089;SDS011;3073;42.660;23.316;2023-05-21T02:46:02;15.93;;;10.40;;
6089;SDS011;3073;42.660;23.316;2023-05-21T02:48:30;22.03;;;11.03;;
6089;SDS011;3073;42.660;23.316;2023-05-21T02:50:57;19.33;;;10.37;;
6089;SDS011;3073;42.660;23.316;2023-05-21T02:53:24;13.77;;;9.83;;
6089;SDS011;3073;42.660;23.316;2023-05-21T02:55:51;20.10;;;10.30;;
6089;SDS011;3073;42.660;23.316;2023-05-21T02:58:18;15.97;;;11.47;;
6089;SDS011;3073;42.660;23.316;2023-05-21T03:00:47;16.40;;;11.00;;
6089;SDS011;3073;42.660;23.316;2023-05-21T03:03:14;14.40;;;10.30;;
6089;SDS011;3073;42.660;23.316;2023-05-21T03:05:42;14.13;;;9.67;;
6089;SDS011;3073;42.660;23.316;2023-05-21T03:08:09;15.43;;;9.87;;
6089;SDS011;3073;42.660;23.316;2023-05-21T03:10:36;13.90;;;8.03;;
6089;SDS011;3073;42.660;23.316;2023-05-21T03:13:03;22.30;;;9.90;;
6089;SDS011;3073;42.660;23.316;2023-05-21T03:15:30;15.87;;;8.70;;
6089;SDS011;3073;42.660;23.316;2023-05-21T03:17:58;10.73;;;8.30;;
6089;SDS011;3073;42.660;23.316;2023-05-21T03:20:25;16.50;;;9.93;;
6089;SDS011;3073;42.660;23.316;2023-05-21T03:22:54;17.33;;;9.93;;
6089;SDS011;3073;42.660;23.316;2023-05-21T03:25:21;13.13;;;9.37;;
6089;SDS011;3073;42.660;23.316;2023-05-21T03:27:49;14.73;;;9.10;;
6089;SDS011;3073;42.660;23.316;2023-05-21T03:30:17;15.63;;;10.10;;
6089;SDS011;3073;42.660;23.316;2023-05-21T03:32:44;16.53;;;11.37;;
6089;SDS011;3073;42.660;23.316;2023-05-21T03:35:11;16.60;;;11.30;;
6089;SDS011;3073;42.660;23.316;2023-05-21T03:37:38;15.43;;;10.50;;
6089;SDS011;3073;42.660;23.316;2023-05-21T03:40:07;13.80;;;9.97;;
6089;SDS011;3073;42.660;23.316;2023-05-21T03:42:34;16.50;;;10.27;;
6089;SDS011;3073;42.660;23.316;2023-05-21T03:45:01;14.70;;;9.70;;
6089;SDS011;3073;42.660;23.316;2023-05-21T03:47:28;22.30;;;10.47;;
6089;SDS011;3073;42.660;23.316;2023-05-21T03:49:55;16.27;;;10.37;;
6089;SDS011;3073;42.660;23.316;2023-05-21T03:52:22;29.50;;;16.10;;
6089;SDS011;3073;42.660;23.316;2023-05-21T03:54:49;25.73;;;14.40;;
6089;SDS011;3073;42.660;23.316;2023-05-21T03:57:17;22.37;;;13.40;;
6089;SDS011;3073;42.660;23.316;2023-05-21T03:59:44;17.27;;;11.07;;
6089;SDS011;3073;42.660;23.316;2023-05-21T04:02:10;18.27;;;10.20;;
6089;SDS011;3073;42.660;23.316;2023-05-21T04:04:37;18.70;;;12.40;;
6089;SDS011;3073;42.660;23.316;2023-05-21T04:07:04;18.03;;;10.93;;
6089;SDS011;3073;42.660;23.316;2023-05-21T04:09:38;19.33;;;10.57;;
6089;SDS011;3073;42.660;23.316;2023-05-21T04:12:05;19.03;;;11.30;;
6089;SDS011;3073;42.660;23.316;2023-05-21T04:14:50;18.37;;;11.23;;
6089;SDS011;3073;42.660;23.316;2023-05-21T04:17:17;13.20;;;9.27;;
6089;SDS011;3073;42.660;23.316;2023-05-21T04:19:45;15.37;;;10.70;;
6089;SDS011;3073;42.660;23.316;2023-05-21T04:22:11;16.47;;;10.80;;
6089;SDS011;3073;42.660;23.316;2023-05-21T04:24:38;15.67;;;9.33;;
6089;SDS011;3073;42.660;23.316;2023-05-21T04:27:05;18.67;;;10.07;;
6089;SDS011;3073;42.660;23.316;2023-05-21T04:29:34;17.27;;;10.40;;
6089;SDS011;3073;42.660;23.316;2023-05-21T04:32:03;22.20;;;11.20;;
6089;SDS011;3073;42.660;23.316;2023-05-21T04:34:31;21.37;;;11.47;;
6089;SDS011;3073;42.660;23.316;2023-05-21T04:36:58;12.93;;;9.27;;
6089;SDS011;3073;42.660;23.316;2023-05-21T04:39:26;16.80;;;10.20;;
6089;SDS011;3073;42.660;23.316;2023-05-21T04:41:55;16.47;;;8.70;;
6089;SDS011;3073;42.660;23.316;2023-05-21T04:44:23;14.40;;;8.97;;
6089;SDS011;3073;42.660;23.316;2023-05-21T04:46:50;18.43;;;9.30;;
6089;SDS011;3073;42.660;23.316;2023-05-21T04:49:20;18.90;;;9.57;;
6089;SDS011;3073;42.660;23.316;2023-05-21T04:51:46;15.83;;;9.03;;
6089;SDS011;3073;42.660;23.316;2023-05-21T04:54:14;14.30;;;8.53;;
6089;SDS011;3073;42.660;23.316;2023-05-21T04:56:41;11.93;;;8.80;;
6089;SDS011;3073;42.660;23.316;2023-05-21T04:59:08;13.40;;;7.93;;
6089;SDS011;3073;42.660;23.316;2023-05-21T05:01:35;18.53;;;9.50;;
6089;SDS011;3073;42.660;23.316;2023-05-21T05:04:02;17.57;;;8.37;;
6089;SDS011;3073;42.660;23.316;2023-05-21T05:06:31;17.13;;;8.80;;
6089;SDS011;3073;42.660;23.316;2023-05-21T05:08:58;10.20;;;8.30;;
6089;SDS011;3073;42.660;23.316;2023-05-21T05:11:24;10.80;;;7.60;;
6089;SDS011;3073;42.660;23.316;2023-05-21T05:13:51;11.37;;;7.80;;
6089;SDS011;3073;42.660;23.316;2023-05-21T05:16:18;11.27;;;7.73;;
6089;SDS011;3073;42.660;23.316;2023-05-21T05:18:49;17.33;;;7.97;;
6089;SDS011;3073;42.660;23.316;2023-05-21T05:21:17;13.90;;;7.47;;
6089;SDS011;3073;42.660;23.316;2023-05-21T05:23:45;15.73;;;8.30;;
6089;SDS011;3073;42.660;23.316;2023-05-21T05:26:12;13.57;;;6.67;;
6089;SDS011;3073;42.660;23.316;2023-05-21T05:28:38;12.77;;;6.80;;
6089;SDS011;3073;42.660;23.316;2023-05-21T05:31:06;13.40;;;8.10;;
6089;SDS011;3073;42.660;23.316;2023-05-21T05:33:34;11.40;;;5.97;;
6089;SDS011;3073;42.660;23.316;2023-05-21T05:36:01;12.70;;;6.57;;
6089;SDS011;3073;42.660;23.316;2023-05-21T05:38:30;10.93;;;5.97;;
6089;SDS011;3073;42.660;23.316;2023-05-21T05:40:58;7.90;;;5.50;;
6089;SDS011;3073;42.660;23.316;2023-05-21T05:43:25;10.87;;;6.10;;
6089;SDS011;3073;42.660;23.316;2023-05-21T05:45:52;9.70;;;6.00;;
6089;SDS011;3073;42.660;23.316;2023-05-21T05:48:19;7.40;;;5.00;;
6089;SDS011;3073;42.660;23.316;2023-05-21T05:50:48;8.37;;;5.70;;
6089;SDS011;3073;42.660;23.316;2023-05-21T05:53:18;8.00;;;4.87;;
6089;SDS011;3073;42.660;23.316;2023-05-21T05:55:45;9.17;;;5.53;;
6089;SDS011;3073;42.660;23.316;2023-05-21T05:58:16;11.07;;;6.50;;
6089;SDS011;3073;42.660;23.316;2023-05-21T06:00:43;10.80;;;6.90;;
6089;SDS011;3073;42.660;23.316;2023-05-21T06:03:10;10.53;;;5.70;;
6089;SDS011;3073;42.660;23.316;2023-05-21T06:05:38;12.63;;;6.53;;
6089;SDS011;3073;42.660;23.316;2023-05-21T06:08:04;11.47;;;6.63;;
6089;SDS011;3073;42.660;23.316;2023-05-21T06:10:32;22.80;;;11.43;;
6089;SDS011;3073;42.660;23.316;2023-05-21T06:12:59;14.33;;;6.87;;
6089;SDS011;3073;42.660;23.316;2023-05-21T06:15:27;8.10;;;5.20;;
6089;SDS011;3073;42.660;23.316;2023-05-21T06:17:55;8.87;;;4.30;;
6089;SDS011;3073;42.660;23.316;2023-05-21T06:20:22;6.70;;;4.27;;
6089;SDS011;3073;42.660;23.316;2023-05-21T06:22:49;18.37;;;4.40;;
6089;SDS011;3073;42.660;23.316;2023-05-21T06:25:19;7.10;;;3.83;;
6089;SDS011;3073;42.660;23.316;2023-05-21T06:27:46;7.73;;;4.80;;
6089;SDS011;3073;42.660;23.316;2023-05-21T06:30:13;5.53;;;4.00;;
6089;SDS011;3073;42.660;23.316;2023-05-21T06:32:44;11.30;;;4.77;;
6089;SDS011;3073;42.660;23.316;2023-05-21T06:35:14;6.60;;;4.40;;
6089;SDS011;3073;42.660;23.316;2023-05-21T06:37:46;6.20;;;4.20;;
6089;SDS011;3073;42.660;23.316;2023-05-21T06:40:15;7.20;;;4.83;;
6089;SDS011;3073;42.660;23.316;2023-05-21T06:42:42;7.50;;;4.10;;
6089;SDS011;3073;42.660;23.316;2023-05-21T06:45:10;16.60;;;4.33;;
6089;SDS011;3073;42.660;23.316;2023-05-21T06:47:37;6.83;;;4.40;;
6089;SDS011;3073;42.660;23.316;2023-05-21T06:50:09;6.93;;;4.47;;
6089;SDS011;3073;42.660;23.316;2023-05-21T06:52:36;6.53;;;4.50;;
6089;SDS011;3073;42.660;23.316;2023-05-21T06:55:03;9.53;;;4.90;;
6089;SDS011;3073;42.660;23.316;2023-05-21T06:57:31;6.53;;;4.30;;
6089;SDS011;3073;42.660;23.316;2023-05-21T06:59:58;10.20;;;4.30;;
6089;SDS011;3073;42.660;23.316;2023-05-21T07:02:25;6.67;;;4.90;;
6089;SDS011;3073;42.660;23.316;2023-05-21T07:04:52;5.37;;;3.40;;
6089;SDS011;3073;42.660;23.316;2023-05-21T07:07:23;5.23;;;3.93;;
6089;SDS011;3073;42.660;23.316;2023-05-21T07:10:04;9.00;;;3.83;;
6089;SDS011;3073;42.660;23.316;2023-05-21T07:12:40;10.57;;;5.10;;
6089;SDS011;3073;42.660;23.316;2023-05-21T07:15:07;6.57;;;4.30;;
6089;SDS011;3073;42.660;23.316;2023-05-21T07:17:35;8.30;;;4.43;;
6089;SDS011;3073;42.660;23.316;2023-05-21T07:20:02;9.77;;;4.23;;
6089;SDS011;3073;42.660;23.316;2023-05-21T07:22:35;9.00;;;4.33;;
6089;SDS011;3073;42.660;23.316;2023-05-21T07:25:03;9.40;;;4.63;;
6089;SDS011;3073;42.660;23.316;2023-05-21T07:27:31;6.40;;;4.17;;
6089;SDS011;3073;42.660;23.316;2023-05-21T07:29:57;7.37;;;4.40;;
6089;SDS011;3073;42.660;23.316;2023-05-21T07:32:24;6.70;;;3.87;;
6089;SDS011;3073;42.660;23.316;2023-05-21T07:34:53;12.13;;;4.63;;
6089;SDS011;3073;42.660;23.316;2023-05-21T07:37:23;7.90;;;4.80;;
6089;SDS011;3073;42.660;23.316;2023-05-21T07:39:55;8.13;;;4.27;;
6089;SDS011;3073;42.660;23.316;2023-05-21T07:42:25;5.80;;;4.43;;
6089;SDS011;3073;42.660;23.316;2023-05-21T07:44:57;5.43;;;3.80;;
6089;SDS011;3073;42.660;23.316;2023-05-21T07:47:26;5.77;;;3.70;;
6089;SDS011;3073;42.660;23.316;2023-05-21T07:49:53;11.63;;;3.90;;
6089;SDS011;3073;42.660;23.316;2023-05-21T07:52:19;5.47;;;3.97;;
6089;SDS011;3073;42.660;23.316;2023-05-21T07:54:46;6.47;;;3.40;;
6089;SDS011;3073;42.660;23.316;2023-05-21T07:57:14;6.00;;;3.90;;
6089;SDS011;3073;42.660;23.316;2023-05-21T07:59:41;5.87;;;3.83;;
6089;SDS011;3073;42.660;23.316;2023-05-21T08:02:08;7.37;;;4.20;;
6089;SDS011;3073;42.660;23.316;2023-05-21T08:04:36;11.53;;;4.17;;
6089;SDS011;3073;42.660;23.316;2023-05-21T08:07:03;6.87;;;3.53;;
6089;SDS011;3073;42.660;23.316;2023-05-21T08:09:31;5.60;;;3.80;;
6089;SDS011;3073;42.660;23.316;2023-05-21T08:12:00;7.93;;;5.80;;
6089;SDS011;3073;42.660;23.316;2023-05-21T08:14:28;8.80;;;3.80;;
6089;SDS011;3073;42.660;23.316;2023-05-21T08:16:55;5.40;;;3.63;;
6089;SDS011;3073;42.660;23.316;2023-05-21T08:19:22;9.57;;;3.23;;
6089;SDS011;3073;42.660;23.316;2023-05-21T08:21:49;5.73;;;3.77;;
6089;SDS011;3073;42.660;23.316;2023-05-21T08:24:16;7.77;;;3.97;;
6089;SDS011;3073;42.660;23.316;2023-05-21T08:26:43;7.40;;;3.63;;
6089;SDS011;3073;42.660;23.316;2023-05-21T08:29:11;4.70;;;3.70;;
6089;SDS011;3073;42.660;23.316;2023-05-21T08:31:39;6.70;;;3.40;;
6089;SDS011;3073;42.660;23.316;2023-05-21T08:34:06;5.83;;;3.93;;
6089;SDS011;3073;42.660;23.316;2023-05-21T08:36:33;8.07;;;3.60;;
6089;SDS011;3073;42.660;23.316;2023-05-21T08:39:00;7.17;;;3.13;;
6089;SDS011;3073;42.660;23.316;2023-05-21T08:41:27;6.33;;;2.93;;
6089;SDS011;3073;42.660;23.316;2023-05-21T08:44:00;6.80;;;3.70;;
6089;SDS011;3073;42.660;23.316;2023-05-21T08:46:28;5.40;;;3.27;;
6089;SDS011;3073;42.660;23.316;2023-05-21T08:49:01;12.83;;;3.17;;
6089;SDS011;3073;42.660;23.316;2023-05-21T08:51:29;4.30;;;3.33;;
6089;SDS011;3073;42.660;23.316;2023-05-21T08:53:56;6.53;;;3.67;;
6089;SDS011;3073;42.660;23.316;2023-05-21T08:56:27;5.57;;;3.30;;
6089;SDS011;3073;42.660;23.316;2023-05-21T08:58:57;8.13;;;3.47;;
6089;SDS011;3073;42.660;23.316;2023-05-21T09:01:24;6.00;;;3.23;;
6089;SDS011;3073;42.660;23.316;2023-05-21T09:03:51;5.43;;;3.40;;
6089;SDS011;3073;42.660;23.316;2023-05-21T09:06:23;4.27;;;3.00;;
6089;SDS011;3073;42.660;23.316;2023-05-21T09:09:01;10.40;;;3.40;;
6089;SDS011;3073;42.660;23.316;2023-05-21T09:11:38;4.13;;;2.97;;
6089;SDS011;3073;42.660;23.316;2023-05-21T09:14:06;7.13;;;3.07;;
6089;SDS011;3073;42.660;23.316;2023-05-21T09:16:42;6.77;;;3.80;;
6089;SDS011;3073;42.660;23.316;2023-05-21T09:19:21;6.43;;;3.50;;
6089;SDS011;3073;42.660;23.316;2023-05-21T09:21:56;5.13;;;3.07;;
6089;SDS011;3073;42.660;23.316;2023-05-21T09:24:40;7.73;;;4.50;;
6089;SDS011;3073;42.660;23.316;2023-05-21T09:27:08;7.67;;;3.97;;
6089;SDS011;3073;42.660;23.316;2023-05-21T09:29:38;4.97;;;3.40;;
6089;SDS011;3073;42.660;23.316;2023-05-21T09:32:07;10.13;;;3.33;;
6089;SDS011;3073;42.660;23.316;2023-05-21T09:34:36;9.43;;;4.00;;
6089;SDS011;3073;42.660;23.316;2023-05-21T09:37:04;5.50;;;3.50;;
6089;SDS011;3073;42.660;23.316;2023-05-21T09:39:31;4.17;;;3.17;;
6089;SDS011;3073;42.660;23.316;2023-05-21T09:41:58;5.10;;;3.03;;
6089;SDS011;3073;42.660;23.316;2023-05-21T09:44:26;9.47;;;3.13;;
6089;SDS011;3073;42.660;23.316;2023-05-21T09:47:01;4.53;;;2.93;;
6089;SDS011;3073;42.660;23.316;2023-05-21T09:49:30;4.07;;;2.53;;
6089;SDS011;3073;42.660;23.316;2023-05-21T09:52:00;5.10;;;2.90;;
6089;SDS011;3073;42.660;23.316;2023-05-21T09:54:31;4.80;;;2.50;;
6089;SDS011;3073;42.660;23.316;2023-05-21T09:56:59;8.20;;;2.60;;
6089;SDS011;3073;42.660;23.316;2023-05-21T09:59:34;4.00;;;2.57;;
6089;SDS011;3073;42.660;23.316;2023-05-21T10:02:01;5.13;;;2.63;;
6089;SDS011;3073;42.660;23.316;2023-05-21T10:04:28;6.17;;;3.47;;
6089;SDS011;3073;42.660;23.316;2023-05-21T10:06:56;3.53;;;2.80;;
6089;SDS011;3073;42.660;23.316;2023-05-21T10:09:25;10.67;;;3.27;;
6089;SDS011;3073;42.660;23.316;2023-05-21T10:11:56;6.10;;;2.70;;
6089;SDS011;3073;42.660;23.316;2023-05-21T10:14:24;5.13;;;3.17;;
6089;SDS011;3073;42.660;23.316;2023-05-21T10:16:56;6.03;;;2.83;;
6089;SDS011;3073;42.660;23.316;2023-05-21T10:19:24;3.80;;;2.90;;
6089;SDS011;3073;42.660;23.316;2023-05-21T10:21:53;12.10;;;3.10;;
6089;SDS011;3073;42.660;23.316;2023-05-21T10:24:21;8.97;;;3.30;;
6089;SDS011;3073;42.660;23.316;2023-05-21T10:26:52;6.80;;;3.40;;
6089;SDS011;3073;42.660;23.316;2023-05-21T10:29:20;4.90;;;3.00;;
6089;SDS011;3073;42.660;23.316;2023-05-21T10:31:48;7.90;;;3.33;;
6089;SDS011;3073;42.660;23.316;2023-05-21T10:34:18;8.80;;;3.20;;
6089;SDS011;3073;42.660;23.316;2023-05-21T10:36:47;8.00;;;3.07;;
6089;SDS011;3073;42.660;23.316;2023-05-21T10:39:14;6.00;;;3.17;;
6089;SDS011;3073;42.660;23.316;2023-05-21T10:41:45;6.77;;;2.73;;
6089;SDS011;3073;42.660;23.316;2023-05-21T10:44:19;6.70;;;3.33;;
6089;SDS011;3073;42.660;23.316;2023-05-21T10:47:03;12.93;;;5.57;;
6089;SDS011;3073;42.660;23.316;2023-05-21T10:53:00;48.60;;;19.90;;
6089;SDS011;3073;42.660;23.316;2023-05-21T10:55:37;10.98;;;4.22;;
6089;SDS011;3073;42.660;23.316;2023-05-21T10:58:21;8.18;;;3.78;;
6089;SDS011;3073;42.660;23.316;2023-05-21T11:01:06;5.23;;;2.97;;
6089;SDS011;3073;42.660;23.316;2023-05-21T11:03:34;10.27;;;3.73;;
6089;SDS011;3073;42.660;23.316;2023-05-21T11:06:02;3.60;;;2.83;;
6089;SDS011;3073;42.660;23.316;2023-05-21T11:08:30;8.00;;;3.23;;
6089;SDS011;3073;42.660;23.316;2023-05-21T11:11:00;6.13;;;3.37;;
6089;SDS011;3073;42.660;23.316;2023-05-21T11:13:27;4.23;;;3.60;;
6089;SDS011;3073;42.660;23.316;2023-05-21T11:16:14;7.80;;;3.80;;
6089;SDS011;3073;42.660;23.316;2023-05-21T11:19:00;4.23;;;3.40;;
6089;SDS011;3073;42.660;23.316;2023-05-21T11:21:28;13.83;;;4.60;;
6089;SDS011;3073;42.660;23.316;2023-05-21T11:23:58;10.07;;;4.10;;
6089;SDS011;3073;42.660;23.316;2023-05-21T11:26:28;6.40;;;3.60;;
6089;SDS011;3073;42.660;23.316;2023-05-21T11:29:16;5.30;;;3.10;;
6089;SDS011;3073;42.660;23.316;2023-05-21T11:31:45;5.40;;;3.47;;
6089;SDS011;3073;42.660;23.316;2023-05-21T11:34:13;4.33;;;3.00;;
6089;SDS011;3073;42.660;23.316;2023-05-21T11:36:43;6.43;;;3.97;;
6089;SDS011;3073;42.660;23.316;2023-05-21T11:39:12;7.20;;;3.20;;
6089;SDS011;3073;42.660;23.316;2023-05-21T11:41:51;6.23;;;3.93;;
6089;SDS011;3073;42.660;23.316;2023-05-21T11:44:20;6.63;;;3.13;;
6089;SDS011;3073;42.660;23.316;2023-05-21T11:47:05;6.97;;;3.73;;
6089;SDS011;3073;42.660;23.316;2023-05-21T11:49:33;5.00;;;3.23;;
6089;SDS011;3073;42.660;23.316;2023-05-21T11:52:01;8.70;;;4.00;;
6089;SDS011;3073;42.660;23.316;2023-05-21T11:54:29;4.43;;;3.07;;
6089;SDS011;3073;42.660;23.316;2023-05-21T11:56:58;9.60;;;3.77;;
6089;SDS011;3073;42.660;23.316;2023-05-21T11:59:26;7.93;;;4.10;;
6089;SDS011;3073;42.660;23.316;2023-05-21T12:01:53;5.00;;;3.47;;
6089;SDS011;3073;42.660;23.316;2023-05-21T12:04:21;5.20;;;3.70;;
6089;SDS011;3073;42.660;23.316;2023-05-21T12:06:49;5.13;;;3.23;;
6089;SDS011;3073;42.660;23.316;2023-05-21T12:09:16;6.57;;;3.70;;
6089;SDS011;3073;42.660;23.316;2023-05-21T12:11:42;4.80;;;3.60;;
6089;SDS011;3073;42.660;23.316;2023-05-21T12:14:09;9.23;;;3.80;;
6089;SDS011;3073;42.660;23.316;2023-05-21T12:16:37;7.67;;;3.40;;
6089;SDS011;3073;42.660;23.316;2023-05-21T12:19:05;7.10;;;4.33;;
6089;SDS011;3073;42.660;23.316;2023-05-21T12:21:33;9.50;;;3.43;;
6089;SDS011;3073;42.660;23.316;2023-05-21T12:24:00;7.27;;;4.23;;
6089;SDS011;3073;42.660;23.316;2023-05-21T12:26:28;7.23;;;4.43;;
6089;SDS011;3073;42.660;23.316;2023-05-21T12:28:57;4.40;;;3.60;;
6089;SDS011;3073;42.660;23.316;2023-05-21T12:31:24;10.07;;;4.27;;
6089;SDS011;3073;42.660;23.316;2023-05-21T12:33:52;5.23;;;3.17;;
6089;SDS011;3073;42.660;23.316;2023-05-21T12:36:24;5.70;;;3.87;;
6089;SDS011;3073;42.660;23.316;2023-05-21T12:38:54;6.93;;;3.80;;
6089;SDS011;3073;42.660;23.316;2023-05-21T12:41:22;6.33;;;3.23;;
6089;SDS011;3073;42.660;23.316;2023-05-21T12:43:52;7.03;;;3.90;;
6089;SDS011;3073;42.660;23.316;2023-05-21T12:46:19;9.10;;;3.93;;
6089;SDS011;3073;42.660;23.316;2023-05-21T12:48:47;8.67;;;3.40;;
6089;SDS011;3073;42.660;23.316;2023-05-21T12:51:15;7.50;;;4.13;;
6089;SDS011;3073;42.660;23.316;2023-05-21T12:53:42;9.27;;;6.73;;
6089;SDS011;3073;42.660;23.316;2023-05-21T12:56:11;6.07;;;4.07;;
6089;SDS011;3073;42.660;23.316;2023-05-21T12:58:39;6.23;;;4.10;;
6089;SDS011;3073;42.660;23.316;2023-05-21T13:01:08;5.03;;;3.57;;
6089;SDS011;3073;42.660;23.316;2023-05-21T13:03:36;5.33;;;3.43;;
6089;SDS011;3073;42.660;23.316;2023-05-21T13:06:04;5.17;;;3.10;;
6089;SDS011;3073;42.660;23.316;2023-05-21T13:08:32;15.30;;;4.80;;
6089;SDS011;3073;42.660;23.316;2023-05-21T13:11:00;10.30;;;4.20;;
6089;SDS011;3073;42.660;23.316;2023-05-21T13:13:28;5.57;;;3.50;;
6089;SDS011;3073;42.660;23.316;2023-05-21T13:15:55;6.97;;;4.20;;
6089;SDS011;3073;42.660;23.316;2023-05-21T13:18:24;8.53;;;3.67;;
6089;SDS011;3073;42.660;23.316;2023-05-21T13:20:51;5.43;;;3.30;;
6089;SDS011;3073;42.660;23.316;2023-05-21T13:23:18;7.73;;;3.43;;
6089;SDS011;3073;42.660;23.316;2023-05-21T13:25:45;5.53;;;3.77;;
6089;SDS011;3073;42.660;23.316;2023-05-21T13:28:12;7.50;;;3.83;;
6089;SDS011;3073;42.660;23.316;2023-05-21T13:30:40;6.70;;;3.73;;
6089;SDS011;3073;42.660;23.316;2023-05-21T13:33:07;7.97;;;4.97;;
6089;SDS011;3073;42.660;23.316;2023-05-21T13:35:35;5.73;;;4.30;;
6089;SDS011;3073;42.660;23.316;2023-05-21T13:38:02;8.50;;;4.50;;
6089;SDS011;3073;42.660;23.316;2023-05-21T13:40:29;5.80;;;3.50;;
6089;SDS011;3073;42.660;23.316;2023-05-21T13:42:56;7.20;;;3.47;;
6089;SDS011;3073;42.660;23.316;2023-05-21T13:45:23;12.20;;;3.50;;
6089;SDS011;3073;42.660;23.316;2023-05-21T13:47:54;5.50;;;3.50;;
6089;SDS011;3073;42.660;23.316;2023-05-21T13:50:21;8.80;;;3.67;;
6089;SDS011;3073;42.660;23.316;2023-05-21T13:52:48;7.00;;;3.90;;
6089;SDS011;3073;42.660;23.316;2023-05-21T13:55:15;8.23;;;4.80;;
6089;SDS011;3073;42.660;23.316;2023-05-21T13:57:45;4.10;;;3.50;;
6089;SDS011;3073;42.660;23.316;2023-05-21T14:00:14;6.93;;;3.47;;
6089;SDS011;3073;42.660;23.316;2023-05-21T14:02:42;5.40;;;3.63;;
6089;SDS011;3073;42.660;23.316;2023-05-21T14:05:11;8.53;;;4.30;;
6089;SDS011;3073;42.660;23.316;2023-05-21T14:07:38;12.43;;;4.40;;
6089;SDS011;3073;42.660;23.316;2023-05-21T14:10:06;7.13;;;3.80;;
6089;SDS011;3073;42.660;23.316;2023-05-21T14:12:33;6.20;;;4.17;;
6089;SDS011;3073;42.660;23.316;2023-05-21T14:15:00;10.27;;;4.73;;
6089;SDS011;3073;42.660;23.316;2023-05-21T14:17:27;6.70;;;4.00;;
6089;SDS011;3073;42.660;23.316;2023-05-21T14:19:54;6.20;;;3.90;;
6089;SDS011;3073;42.660;23.316;2023-05-21T14:22:23;7.50;;;3.90;;
6089;SDS011;3073;42.660;23.316;2023-05-21T14:24:50;11.93;;;4.13;;
6089;SDS011;3073;42.660;23.316;2023-05-21T14:27:16;7.00;;;3.60;;
6089;SDS011;3073;42.660;23.316;2023-05-21T14:29:43;5.47;;;3.63;;
6089;SDS011;3073;42.660;23.316;2023-05-21T14:32:10;7.43;;;4.10;;
6089;SDS011;3073;42.660;23.316;2023-05-21T14:34:37;6.33;;;3.37;;
6089;SDS011;3073;42.660;23.316;2023-05-21T14:37:04;6.70;;;3.77;;
6089;SDS011;3073;42.660;23.316;2023-05-21T14:39:32;5.77;;;3.67;;
6089;SDS011;3073;42.660;23.316;2023-05-21T14:42:11;7.73;;;3.97;;
6089;SDS011;3073;42.660;23.316;2023-05-21T14:44:38;8.50;;;4.13;;
6089;SDS011;3073;42.660;23.316;2023-05-21T14:47:06;6.10;;;3.83;;
6089;SDS011;3073;42.660;23.316;2023-05-21T14:49:33;4.47;;;3.70;;
6089;SDS011;3073;42.660;23.316;2023-05-21T14:51:59;6.13;;;3.37;;
6089;SDS011;3073;42.660;23.316;2023-05-21T14:54:26;5.53;;;4.30;;
6089;SDS011;3073;42.660;23.316;2023-05-21T14:56:55;4.43;;;3.43;;
6089;SDS011;3073;42.660;23.316;2023-05-21T14:59:22;7.70;;;4.23;;
6089;SDS011;3073;42.660;23.316;2023-05-21T15:01:49;5.60;;;4.33;;
6089;SDS011;3073;42.660;23.316;2023-05-21T15:04:15;6.50;;;4.30;;
6089;SDS011;3073;42.660;23.316;2023-05-21T15:06:42;5.50;;;3.70;;